Time;durP1;ratioP1;P1;durP2;ratioP2;P2;SDS_P1;SDS_P2;PMS_P1;PMS_P2;Temp;Humidity;BMP_temperature;BMP_pressure;BME280_temperature;BME280_humidity;BME280_pressure;Samples;Min_cycle;Max_cycle;Signal;HPM_P1;HPM_P2
2023/11/24 00:00:09;;;;;;;3.13;2.15;;;;;;;5.33;100.00;97290.44;5046200;28;20403;-81
2023/11/24 00:02:36;;;;;;;3.97;1.80;;;;;;;5.31;100.00;97271.47;5044235;28;20403;-81
2023/11/24 00:05:06;;;;;;;2.10;1.90;;;;;;;5.29;100.00;97257.75;5044594;28;20843;-81
2023/11/24 00:07:32;;;;;;;2.25;2.00;;;;;;;5.29;100.00;97257.75;5044143;28;20426;-81
2023/11/24 00:10:00;;;;;;;2.85;1.90;;;;;;;5.28;100.00;97264.03;5044316;28;20411;-81
2023/11/24 00:12:26;;;;;;;4.70;2.00;;;;;;;5.27;100.00;97257.97;5046643;28;20386;-82
2023/11/24 00:14:52;;;;;;;5.78;2.30;;;;;;;5.24;100.00;97247.13;5044450;28;20399;-81
2023/11/24 00:17:19;;;;;;;5.00;2.40;;;;;;;5.23;100.00;97233.22;5044943;28;20395;-80
2023/11/24 00:19:45;;;;;;;3.53;2.40;;;;;;;5.23;100.00;97232.41;5043868;28;20460;-81
2023/11/24 00:22:13;;;;;;;5.60;2.20;;;;;;;5.24;100.00;97221.69;5045456;28;20395;-81
2023/11/24 00:24:39;;;;;;;4.07;2.40;;;;;;;5.25;100.00;97222.50;5045232;28;20448;-81
2023/11/24 00:27:06;;;;;;;3.15;2.25;;;;;;;5.22;100.00;97230.81;5044111;28;20406;-82
2023/11/24 00:29:32;;;;;;;4.53;2.50;;;;;;;5.22;100.00;97215.06;5041901;28;20423;-81
2023/11/24 00:31:58;;;;;;;3.03;2.20;;;;;;;5.22;100.00;97209.81;5041714;28;20398;-80
2023/11/24 00:34:24;;;;;;;3.60;2.33;;;;;;;5.21;100.00;97198.50;5040773;28;20410;-80
2023/11/24 00:36:51;;;;;;;4.87;2.40;;;;;;;5.22;100.00;97188.81;5040066;28;20451;-81
2023/11/24 00:39:19;;;;;;;3.38;2.75;;;;;;;5.19;100.00;97192.66;5040139;28;20405;-82
2023/11/24 00:41:45;;;;;;;5.55;2.97;;;;;;;5.20;100.00;97189.03;5044236;28;20903;-80
2023/11/24 00:44:11;;;;;;;3.30;2.70;;;;;;;5.21;100.00;97181.97;5043598;28;20962;-81
2023/11/24 00:46:37;;;;;;;3.33;2.65;;;;;;;5.22;100.00;97175.69;5043243;28;20399;-81
2023/11/24 00:49:04;;;;;;;3.00;2.60;;;;;;;5.21;100.00;97169.66;5041977;28;20446;-80
2023/11/24 00:51:30;;;;;;;4.35;3.03;;;;;;;5.21;100.00;97137.34;5043544;28;20402;-81
2023/11/24 00:53:56;;;;;;;10.70;3.05;;;;;;;5.20;100.00;97141.00;5043742;28;20453;-82
2023/11/24 00:56:24;;;;;;;3.80;2.88;;;;;;;5.19;100.00;97131.56;5043910;28;20399;-81
2023/11/24 00:58:51;;;;;;;4.00;2.80;;;;;;;5.21;100.00;97134.72;5043986;28;20426;-82
2023/11/24 01:01:17;;;;;;;3.20;2.50;;;;;;;5.21;100.00;97134.72;5048485;28;20417;-81
2023/11/24 01:03:43;;;;;;;6.50;2.90;;;;;;;5.20;100.00;97131.31;5043697;28;20930;-81
2023/11/24 01:06:09;;;;;;;4.43;2.67;;;;;;;5.21;100.00;97119.00;5043785;28;20563;-80
2023/11/24 01:08:35;;;;;;;6.05;2.83;;;;;;;5.21;100.00;97124.25;5045540;28;20406;-80
2023/11/24 01:11:02;;;;;;;6.25;3.20;;;;;;;5.21;100.00;97130.28;5045467;28;20429;-82
2023/11/24 01:13:32;;;;;;;4.18;2.78;;;;;;;5.24;100.00;97119.34;5046156;28;20742;-81
2023/11/24 01:15:58;;;;;;;5.95;3.05;;;;;;;5.23;100.00;97124.81;5046734;28;20403;-81
2023/11/24 01:18:25;;;;;;;4.97;3.40;;;;;;;5.24;100.00;97123.81;5046280;28;20379;-80
2023/11/24 01:20:51;;;;;;;5.90;3.17;;;;;;;5.26;100.00;97125.16;5045260;28;20399;-80
2023/11/24 01:23:17;;;;;;;4.13;3.00;;;;;;;5.25;100.00;97128.03;5045931;28;20399;-80
2023/11/24 01:25:43;;;;;;;3.92;2.97;;;;;;;5.23;100.00;97122.19;5049028;28;20430;-81
2023/11/24 01:28:10;;;;;;;4.82;2.92;;;;;;;5.26;100.00;97132.25;5048072;28;20791;-82
2023/11/24 01:30:39;;;;;;;3.80;2.70;;;;;;;5.27;100.00;97137.25;5046606;28;20415;-82
2023/11/24 01:33:05;;;;;;;4.43;3.05;;;;;;;5.26;100.00;97133.03;5047677;28;20392;-82
2023/11/24 01:35:31;;;;;;;3.92;2.78;;;;;;;5.28;100.00;97151.19;5047236;28;20499;-80
2023/11/24 01:37:59;;;;;;;4.70;2.80;;;;;;;5.26;100.00;97138.28;5047122;28;20399;-82
2023/11/24 01:40:26;;;;;;;4.82;3.17;;;;;;;5.29;100.00;97147.53;5046154;28;20460;-82
2023/11/24 01:42:52;;;;;;;4.53;2.60;;;;;;;5.29;100.00;97150.16;5046690;28;20437;-81
2023/11/24 01:45:18;;;;;;;5.30;3.00;;;;;;;5.29;100.00;97156.22;5046160;28;20403;-80
2023/11/24 01:47:47;;;;;;;7.03;2.60;;;;;;;5.30;100.00;97157.03;5044787;28;20402;-80
2023/11/24 01:50:16;;;;;;;4.93;2.80;;;;;;;5.28;100.00;97152.00;5045329;28;20802;-82
2023/11/24 01:52:43;;;;;;;4.85;2.90;;;;;;;5.28;100.00;97141.50;5045000;28;20946;-80
2023/11/24 01:55:13;;;;;;;6.82;2.88;;;;;;;5.28;100.00;97136.25;5044825;28;20954;-81
2023/11/24 01:57:42;;;;;;;4.18;2.92;;;;;;;5.27;100.00;97132.00;5044467;28;20399;-81
2023/11/24 02:00:13;;;;;;;5.15;2.75;;;;;;;5.26;100.00;97130.41;5044458;28;20871;-81
2023/11/24 02:02:40;;;;;;;3.30;2.58;;;;;;;5.27;100.00;97110.22;5044011;28;20479;-81
2023/11/24 02:05:08;;;;;;;7.95;3.05;;;;;;;5.27;100.00;97116.28;5044414;28;20406;-80
2023/11/24 02:07:35;;;;;;;6.07;2.97;;;;;;;5.27;100.00;97116.28;5044122;28;20414;-81
2023/11/24 02:10:02;;;;;;;6.03;3.10;;;;;;;5.27;100.00;97111.03;5045157;28;20445;-81
2023/11/24 02:12:28;;;;;;;4.07;2.70;;;;;;;5.28;100.00;97112.63;5046694;28;20395;-82
2023/11/24 02:14:54;;;;;;;5.50;2.95;;;;;;;5.27;100.00;97108.41;5046883;28;20411;-82
2023/11/24 02:17:20;;;;;;;5.20;3.30;;;;;;;5.29;100.00;97108.19;5042120;28;20410;-81
2023/11/24 02:19:46;;;;;;;4.75;3.03;;;;;;;5.29;100.00;97108.97;5041945;28;20403;-81
2023/11/24 02:22:14;;;;;;;7.68;3.35;;;;;;;5.30;100.00;97101.91;5041994;28;20419;-80
2023/11/24 02:24:41;;;;;;;6.47;3.22;;;;;;;5.31;100.00;97100.88;5041001;28;20407;-81
2023/11/24 02:27:08;;;;;;;4.28;3.13;;;;;;;5.31;100.00;97091.19;5042422;28;20464;-81
2023/11/24 02:29:34;;;;;;;4.82;3.13;;;;;;;5.33;100.00;97096.22;5042798;28;20419;-82
2023/11/24 02:32:00;;;;;;;9.48;3.03;;;;;;;5.34;100.00;97089.94;5042765;28;20406;-81
2023/11/24 02:34:28;;;;;;;4.18;3.05;;;;;;;5.36;100.00;97093.94;5049696;28;20407;-81
2023/11/24 02:36:54;;;;;;;3.60;2.90;;;;;;;5.38;100.00;97093.72;5044559;28;20395;-81
2023/11/24 02:39:22;;;;;;;6.15;2.95;;;;;;;5.38;100.00;97089.28;5043927;28;20474;-82
2023/11/24 02:41:49;;;;;;;4.75;3.00;;;;;;;5.39;100.00;97095.31;5044038;28;20760;-82
2023/11/24 02:44:16;;;;;;;4.95;3.08;;;;;;;5.41;100.00;97093.28;5044631;28;20407;-82
2023/11/24 02:46:42;;;;;;;4.18;2.90;;;;;;;5.41;100.00;97080.94;5043078;28;20580;-80
2023/11/24 02:49:08;;;;;;;3.95;3.05;;;;;;;5.43;100.00;97086.75;5042567;28;20456;-82
2023/11/24 02:51:34;;;;;;;3.38;2.58;;;;;;;5.44;100.00;97077.06;5042495;28;20399;-80
2023/11/24 02:54:00;;;;;;;4.78;2.50;;;;;;;5.44;100.00;97064.75;5041694;28;20395;-82
2023/11/24 02:56:27;;;;;;;3.35;2.55;;;;;;;5.46;100.00;97067.16;5042072;28;20396;-81
2023/11/24 02:58:55;;;;;;;2.43;2.10;;;;;;;5.49;100.00;97063.28;5042153;28;20402;-81
2023/11/24 03:01:21;;;;;;;3.10;2.40;;;;;;;5.50;100.00;97070.09;5041611;28;20427;-81
2023/11/24 03:03:47;;;;;;;3.55;2.30;;;;;;;5.51;100.00;97066.47;5039709;28;20412;-82
2023/11/24 03:06:13;;;;;;;2.50;2.30;;;;;;;5.50;100.00;97055.16;5041163;28;20399;-80
2023/11/24 03:08:39;;;;;;;3.28;1.98;;;;;;;5.53;100.00;97051.28;5042669;28;20395;-82
2023/11/24 03:11:06;;;;;;;2.85;2.38;;;;;;;5.53;100.00;97040.78;5042216;28;20472;-81
2023/11/24 03:13:32;;;;;;;3.57;2.20;;;;;;;5.53;100.00;97041.59;5041769;28;20787;-81
2023/11/24 03:16:00;;;;;;;2.90;2.00;;;;;;;5.55;100.00;97038.75;5040138;28;20404;-82
2023/11/24 03:18:26;;;;;;;4.53;2.10;;;;;;;5.56;100.00;97040.34;5041837;28;20544;-83
2023/11/24 03:20:52;;;;;;;3.30;2.10;;;;;;;5.56;100.00;97020.16;5040200;28;21170;-82
2023/11/24 03:23:18;;;;;;;2.92;2.00;;;;;;;5.56;100.00;97017.53;5042471;28;20929;-82
2023/11/24 03:25:44;;;;;;;2.75;1.98;;;;;;;5.57;100.00;97021.72;5041516;28;20475;-82
2023/11/24 03:28:12;;;;;;;2.97;1.90;;;;;;;5.57;100.00;97032.22;5041911;28;20437;-82
2023/11/24 03:30:38;;;;;;;2.70;2.23;;;;;;;5.56;100.00;97022.78;5045955;28;20533;-81
2023/11/24 03:33:06;;;;;;;4.43;2.47;;;;;;;5.56;100.00;97014.09;5040374;28;20763;-82
2023/11/24 03:35:32;;;;;;;4.75;2.50;;;;;;;5.55;100.00;96999.38;5040612;28;20493;-81
2023/11/24 03:37:58;;;;;;;4.15;2.40;;;;;;;5.53;100.00;96983.84;5040880;28;20391;-80
2023/11/24 03:40:24;;;;;;;6.13;2.80;;;;;;;5.50;100.00;96962.47;5040373;28;20406;-81
2023/11/24 03:42:51;;;;;;;5.63;2.58;;;;;;;5.47;100.00;96957.69;5041166;28;20491;-82
2023/11/24 03:45:17;;;;;;;5.63;2.80;;;;;;;5.42;100.00;96959.16;5040356;28;20399;-80
2023/11/24 03:47:43;;;;;;;3.90;2.80;;;;;;;5.39;100.00;96964.09;5040155;28;20391;-82
2023/11/24 03:50:11;;;;;;;5.03;2.70;;;;;;;5.37;100.00;96968.75;5039775;28;20422;-80
2023/11/24 03:52:37;;;;;;;4.82;2.70;;;;;;;5.37;100.00;96964.31;5039823;28;20399;-80
2023/11/24 03:55:07;;;;;;;3.95;2.80;;;;;;;5.37;100.00;96966.13;5041595;28;20407;-81
2023/11/24 03:57:33;;;;;;;5.57;2.72;;;;;;;5.36;100.00;96967.97;5039642;28;20403;-82
2023/11/24 03:59:59;;;;;;;3.88;2.40;;;;;;;5.39;100.00;96983.25;5040024;28;20457;-81
2023/11/24 04:02:25;;;;;;;3.85;2.45;;;;;;;5.38;100.00;96973.78;5040675;28;20395;-81
2023/11/24 04:04:51;;;;;;;3.33;2.50;;;;;;;5.39;100.00;96980.63;5041482;28;20406;-80
2023/11/24 04:07:19;;;;;;;3.72;2.47;;;;;;;5.38;100.00;96976.41;5042158;28;20411;-80
2023/11/24 04:09:46;;;;;;;3.05;2.38;;;;;;;5.36;100.00;96967.97;5041017;28;20925;-80
2023/11/24 04:12:12;;;;;;;5.40;2.60;;;;;;;5.37;100.00;96955.63;5041996;28;20479;-80
2023/11/24 04:14:38;;;;;;;3.10;2.33;;;;;;;5.36;100.00;96962.72;5041392;28;20451;-80
2023/11/24 04:17:07;;;;;;;3.78;2.45;;;;;;;5.35;100.00;96950.63;5045636;28;20403;-80
2023/11/24 04:19:33;;;;;;;3.95;2.42;;;;;;;5.37;100.00;96948.56;5045905;28;20512;-81
2023/11/24 04:21:59;;;;;;;2.20;2.00;;;;;;;5.34;100.00;96951.63;5045082;28;20390;-79
2023/11/24 04:24:27;;;;;;;2.63;1.95;;;;;;;5.39;100.00;96961.47;5045886;28;20391;-81
2023/11/24 04:26:53;;;;;;;2.67;1.90;;;;;;;5.39;100.00;96956.22;5044903;28;20399;-80
2023/11/24 04:29:21;;;;;;;1.90;1.70;;;;;;;5.42;100.00;96940.78;5045324;28;20399;-81
2023/11/24 04:31:47;;;;;;;1.83;1.63;;;;;;;5.44;100.00;96946.63;5044675;28;20406;-81
2023/11/24 04:34:13;;;;;;;3.60;1.77;;;;;;;5.44;100.00;96945.81;5045079;28;20401;-81
2023/11/24 04:36:39;;;;;;;2.67;1.98;;;;;;;5.41;100.00;96941.06;5045824;28;20879;-80
2023/11/24 04:39:06;;;;;;;5.10;2.00;;;;;;;5.41;100.00;96941.81;5045426;28;20423;-81
2023/11/24 04:41:33;;;;;;;5.15;1.80;;;;;;;5.41;100.00;96930.56;5045270;28;20444;-81
2023/11/24 04:43:59;;;;;;;2.92;2.22;;;;;;;5.44;100.00;96937.94;5046344;28;20395;-80
2023/11/24 04:46:26;;;;;;;2.40;2.00;;;;;;;5.42;100.00;96926.88;5046079;28;20411;-81
2023/11/24 04:48:53;;;;;;;2.40;2.13;;;;;;;5.40;100.00;96928.94;5046862;28;20391;-80
2023/11/24 04:51:19;;;;;;;4.47;1.95;;;;;;;5.42;100.00;96935.53;5047177;28;20415;-82
2023/11/24 04:53:46;;;;;;;2.47;1.95;;;;;;;5.43;100.00;96979.16;5049184;28;20479;-80
2023/11/24 04:56:13;;;;;;;3.55;2.13;;;;;;;5.45;100.00;97016.47;5045953;28;20413;-80
2023/11/24 04:58:40;;;;;;;5.65;2.33;;;;;;;5.44;100.00;97006.19;5041753;28;20896;-80
2023/11/24 05:01:07;;;;;;;4.55;2.10;;;;;;;5.38;100.00;97023.66;5038922;28;20506;-80
2023/11/24 05:03:33;;;;;;;22.67;2.70;;;;;;;5.25;100.00;97021.25;5038059;28;20463;-81
2023/11/24 05:06:01;;;;;;;12.23;2.60;;;;;;;4.98;100.00;97023.47;5038291;28;20931;-79
2023/11/24 05:08:27;;;;;;;4.70;1.80;;;;;;;4.83;100.00;97015.19;5038456;28;20395;-80
2023/11/24 05:10:53;;;;;;;9.15;2.15;;;;;;;4.76;100.00;97009.25;5038638;28;20422;-81
2023/11/24 05:13:19;;;;;;;6.35;2.10;;;;;;;4.73;100.00;97011.53;5038461;28;20401;-79
2023/11/24 05:15:48;;;;;;;6.45;1.98;;;;;;;4.70;100.00;97007.53;5038359;28;20403;-79
2023/11/24 05:18:14;;;;;;;4.80;2.10;;;;;;;4.68;100.00;96992.00;5038525;28;20395;-80
2023/11/24 05:20:40;;;;;;;8.77;2.55;;;;;;;4.66;100.00;96986.19;5038046;28;20413;-80
2023/11/24 05:23:06;;;;;;;4.65;2.45;;;;;;;4.65;100.00;96992.47;5037792;28;20423;-79
2023/11/24 05:25:32;;;;;;;7.53;2.80;;;;;;;4.66;100.00;96972.31;5038215;28;20398;-80
2023/11/24 05:27:59;;;;;;;5.07;2.72;;;;;;;4.64;100.00;96990.06;5038891;28;20815;-79
2023/11/24 05:30:25;;;;;;;13.88;3.40;;;;;;;4.62;100.00;96982.44;5041210;28;20415;-81
2023/11/24 05:32:52;;;;;;;23.20;4.00;;;;;;;4.60;100.00;96981.03;5038335;28;20705;-81
2023/11/24 05:35:18;;;;;;;16.42;4.43;;;;;;;4.58;100.00;96975.25;5038940;28;20434;-80
2023/11/24 05:37:45;;;;;;;11.70;3.50;;;;;;;4.55;100.00;96980.91;5038997;28;20433;-80
2023/11/24 05:40:12;;;;;;;8.07;3.13;;;;;;;4.55;100.00;96979.09;5040113;28;20986;-81
2023/11/24 05:42:38;;;;;;;11.43;3.40;;;;;;;4.55;100.00;96968.63;5040198;28;20894;-80
2023/11/24 05:45:05;;;;;;;11.02;3.42;;;;;;;4.54;100.00;96974.06;5037807;28;20403;-80
2023/11/24 05:47:32;;;;;;;6.65;3.00;;;;;;;4.55;100.00;96970.44;5035474;28;20619;-81
2023/11/24 05:49:59;;;;;;;9.77;3.40;;;;;;;4.56;100.00;96972.03;5037177;28;20892;-80
2023/11/24 05:52:25;;;;;;;13.07;4.28;;;;;;;4.55;100.00;96962.56;5035108;28;20433;-82
2023/11/24 05:54:53;;;;;;;11.75;3.80;;;;;;;4.53;100.00;96962.78;5036471;28;20403;-81
2023/11/24 05:57:19;;;;;;;13.67;4.13;;;;;;;4.53;100.00;96968.03;5035320;28;20411;-81
2023/11/24 05:59:45;;;;;;;4.50;3.03;;;;;;;4.55;100.00;96973.84;5039942;28;20494;-81
2023/11/24 06:02:11;;;;;;;13.45;4.97;;;;;;;4.57;100.00;96968.41;5038337;28;20403;-80
2023/11/24 06:04:38;;;;;;;10.90;3.70;;;;;;;4.56;100.00;96964.16;5038544;28;20763;-81
2023/11/24 06:07:05;;;;;;;7.00;3.30;;;;;;;4.55;100.00;96960.75;5040269;28;20414;-80
2023/11/24 06:09:32;;;;;;;5.68;3.40;;;;;;;4.56;100.00;96949.25;5040001;28;20429;-81
2023/11/24 06:11:59;;;;;;;11.15;3.97;;;;;;;4.55;100.00;96952.88;5038732;28;20399;-80
2023/11/24 06:14:25;;;;;;;29.80;5.15;;;;;;;4.55;100.00;96952.88;5039685;28;20771;-80
2023/11/24 06:16:51;;;;;;;10.95;4.53;;;;;;;4.53;100.00;96951.50;5038070;28;20415;-80
2023/11/24 06:19:17;;;;;;;8.70;3.60;;;;;;;4.54;100.00;96953.09;5035122;28;20415;-81
2023/11/24 06:21:43;;;;;;;18.17;4.90;;;;;;;4.52;100.00;96950.69;5040307;28;20399;-79
2023/11/24 06:24:11;;;;;;;16.80;5.40;;;;;;;4.52;100.00;96940.22;5038683;28;20405;-82
2023/11/24 06:26:38;;;;;;;30.70;6.67;;;;;;;4.48;100.00;96933.03;5037342;28;20401;-82
2023/11/24 06:29:04;;;;;;;23.75;6.60;;;;;;;4.48;100.00;96923.34;5037423;28;20783;-83
2023/11/24 06:31:30;;;;;;;13.23;5.25;;;;;;;4.49;100.00;96924.97;5038840;28;20422;-81
2023/11/24 06:33:57;;;;;;;25.52;5.75;;;;;;;4.51;100.00;96922.88;5038376;28;20403;-80
2023/11/24 06:36:23;;;;;;;22.67;5.90;;;;;;;4.51;100.00;96932.59;5038192;28;20790;-81
2023/11/24 06:38:49;;;;;;;23.35;6.53;;;;;;;4.48;100.00;96933.03;5037818;28;20395;-82
2023/11/24 06:41:16;;;;;;;27.15;6.70;;;;;;;4.48;100.00;96940.91;5038456;28;20545;-81
2023/11/24 06:43:43;;;;;;;24.38;6.50;;;;;;;4.45;100.00;96921.16;5034875;28;20759;-80
2023/11/24 06:46:11;;;;;;;24.27;6.28;;;;;;;4.47;100.00;96919.13;5037684;28;20490;-81
2023/11/24 06:48:38;;;;;;;28.45;6.38;;;;;;;4.47;100.00;96910.47;5034920;28;20437;-80
2023/11/24 06:51:05;;;;;;;19.73;6.18;;;;;;;4.46;100.00;96903.63;5038364;28;20430;-82
2023/11/24 06:53:31;;;;;;;25.40;7.18;;;;;;;4.44;100.00;96903.84;5039523;28;20917;-80
2023/11/24 06:55:58;;;;;;;19.38;6.00;;;;;;;4.46;100.00;96893.13;5036744;28;20460;-81
2023/11/24 06:58:25;;;;;;;18.73;5.32;;;;;;;4.46;100.00;96886.09;5036163;28;20406;-81
2023/11/24 07:00:52;;;;;;;17.33;6.28;;;;;;;4.48;100.00;96894.53;5035990;28;20498;-80
2023/11/24 07:03:19;;;;;;;12.40;5.07;;;;;;;4.50;100.00;96892.50;5035748;28;20406;-80
2023/11/24 07:05:46;;;;;;;26.30;6.40;;;;;;;4.51;100.00;96878.34;5037756;28;20497;-80
2023/11/24 07:08:13;;;;;;;11.35;4.70;;;;;;;4.53;100.00;96885.97;5036746;28;20436;-81
2023/11/24 07:10:39;;;;;;;16.58;5.80;;;;;;;4.56;100.00;96890.78;5039880;28;20434;-81
2023/11/24 07:13:07;;;;;;;20.15;6.10;;;;;;;4.56;100.00;96890.78;5039277;28;20441;-83
2023/11/24 07:15:34;;;;;;;22.23;6.25;;;;;;;4.56;100.00;96878.47;5042480;28;20421;-81
2023/11/24 07:18:01;;;;;;;12.52;5.00;;;;;;;4.57;100.00;96882.69;5038471;28;20407;-81
2023/11/24 07:20:29;;;;;;;14.80;5.10;;;;;;;4.60;100.00;96869.13;5037403;28;20431;-81
2023/11/24 07:22:55;;;;;;;15.20;5.18;;;;;;;4.62;100.00;96874.16;5038610;28;20406;-82
2023/11/24 07:25:22;;;;;;;14.93;5.20;;;;;;;4.66;100.00;96872.69;5041113;28;20886;-81
2023/11/24 07:27:48;;;;;;;9.07;4.40;;;;;;;4.70;100.00;96873.81;5041981;28;20922;-80
2023/11/24 07:30:15;;;;;;;16.60;5.28;;;;;;;4.71;100.00;96878.03;5042467;28;20771;-82
2023/11/24 07:32:42;;;;;;;20.77;5.90;;;;;;;4.72;100.00;96881.47;5038068;28;20802;-81
2023/11/24 07:35:10;;;;;;;11.43;4.68;;;;;;;4.74;100.00;96876.78;5045712;28;20407;-81
2023/11/24 07:37:36;;;;;;;32.97;6.35;;;;;;;4.74;100.00;96876.78;5040942;28;20815;-80
2023/11/24 07:40:08;;;;;;;17.52;5.70;;;;;;;4.73;100.00;96873.38;5037678;28;20411;-83
2023/11/24 07:42:36;;;;;;;13.30;5.03;;;;;;;4.74;100.00;96861.84;5038673;28;20481;-82
2023/11/24 07:45:02;;;;;;;9.63;4.55;;;;;;;4.78;100.00;96862.22;5037517;28;20410;-81
2023/11/24 07:47:28;;;;;;;13.60;5.10;;;;;;;4.81;100.00;96865.16;5036275;28;20399;-81
2023/11/24 07:49:56;;;;;;;24.83;6.00;;;;;;;4.84;100.00;96867.34;5036110;28;20774;-82
2023/11/24 07:52:24;;;;;;;10.60;4.60;;;;;;;4.87;100.00;96864.28;5036836;28;20405;-81
2023/11/24 07:54:51;;;;;;;19.08;5.35;;;;;;;4.92;100.00;96856.50;5036199;28;20781;-81
2023/11/24 07:57:18;;;;;;;22.55;5.50;;;;;;;4.95;100.00;96844.78;5035760;28;20402;-81
2023/11/24 07:59:44;;;;;;;17.92;5.18;;;;;;;4.97;100.00;96827.78;5035832;28;20541;-82
2023/11/24 08:02:10;;;;;;;14.23;4.50;;;;;;;5.01;100.00;96831.53;5036088;28;20403;-81
2023/11/24 08:04:36;;;;;;;22.83;5.53;;;;;;;5.00;100.00;96823.91;5036544;28;20438;-82
2023/11/24 08:07:04;;;;;;;11.52;4.30;;;;;;;5.04;100.00;96825.03;5036263;28;20855;-80
2023/11/24 08:09:30;;;;;;;13.52;5.18;;;;;;;5.04;100.00;96838.13;5036747;28;20463;-81
2023/11/24 08:11:56;;;;;;;16.05;5.50;;;;;;;5.08;100.00;96828.81;5036347;28;20926;-83
2023/11/24 08:14:23;;;;;;;24.75;5.97;;;;;;;5.06;100.00;96826.41;5036905;28;20403;-80
2023/11/24 08:16:51;;;;;;;16.63;5.70;;;;;;;5.14;100.00;96812.13;5035652;28;20394;-80
2023/11/24 08:19:22;;;;;;;21.38;5.65;;;;;;;5.17;100.00;96824.00;5036160;28;20422;-80
2023/11/24 08:21:48;;;;;;;24.30;5.97;;;;;;;5.17;100.00;96816.94;5033625;28;20809;-81
2023/11/24 08:24:16;;;;;;;28.88;7.28;;;;;;;5.20;100.00;96805.16;5035727;28;20399;-81
2023/11/24 08:26:42;;;;;;;21.83;5.37;;;;;;;5.24;100.00;96807.13;5035782;28;20469;-80
2023/11/24 08:29:09;;;;;;;23.13;5.93;;;;;;;5.23;100.00;96807.34;5034739;28;20395;-79
2023/11/24 08:31:35;;;;;;;29.33;6.82;;;;;;;5.28;100.00;96794.31;5035257;28;20422;-81
2023/11/24 08:34:01;;;;;;;18.60;5.68;;;;;;;5.35;100.00;96792.34;5035768;28;20425;-80
2023/11/24 08:36:27;;;;;;;31.88;7.05;;;;;;;5.41;100.00;96796.69;5033875;28;20415;-80
2023/11/24 08:38:54;;;;;;;17.83;4.95;;;;;;;5.45;100.00;96801.25;5024714;28;20435;-81
2023/11/24 08:41:21;;;;;;;27.80;5.60;;;;;;;5.51;100.00;96802.13;5032834;28;20501;-80
2023/11/24 08:43:47;;;;;;;15.97;4.80;;;;;;;5.66;100.00;96801.63;5033014;28;20453;-80
2023/11/24 08:46:13;;;;;;;23.17;5.30;;;;;;;5.77;100.00;96804.22;5037854;28;20394;-81
2023/11/24 08:48:40;;;;;;;16.40;5.00;;;;;;;5.86;100.00;96796.78;5035858;28;20460;-80
2023/11/24 08:51:10;;;;;;;17.17;4.20;;;;;;;5.95;100.00;96800.63;5034803;28;20749;-83
2023/11/24 08:53:37;;;;;;;21.42;4.00;;;;;;;5.98;100.00;96794.09;5034635;28;20430;-80
2023/11/24 08:56:06;;;;;;;11.23;2.97;;;;;;;6.09;100.00;96795.91;5033235;28;20438;-80
2023/11/24 08:58:33;;;;;;;12.40;2.70;;;;;;;6.27;100.00;96784.34;5037330;28;20406;-81
2023/11/24 09:01:00;;;;;;;12.35;2.95;;;;;;;6.36;100.00;96778.47;5033412;28;20447;-81
2023/11/24 09:03:26;;;;;;;27.15;3.90;;;;;;;6.40;100.00;96784.03;5035179;28;20403;-82
2023/11/24 09:05:53;;;;;;;11.80;2.70;;;;;;;6.40;100.00;96782.19;5039231;28;20407;-81
2023/11/24 09:08:19;;;;;;;6.32;2.53;;;;;;;6.33;100.00;96780.75;5039237;28;20755;-80
2023/11/24 09:10:45;;;;;;;13.07;3.00;;;;;;;6.19;100.00;96785.53;5038525;28;20451;-79
2023/11/24 09:13:13;;;;;;;21.80;3.80;;;;;;;5.99;100.00;96779.94;5039587;28;20418;-80
2023/11/24 09:15:41;;;;;;;13.05;2.92;;;;;;;5.87;100.00;96779.16;5053644;28;20405;-80
2023/11/24 09:18:07;;;;;;;17.63;3.20;;;;;;;5.70;100.00;96772.06;5043855;28;20407;-80
2023/11/24 09:20:33;;;;;;;16.58;3.20;;;;;;;5.68;100.00;96766.25;5041749;28;20413;-80
2023/11/24 09:22:59;;;;;;;24.40;4.10;;;;;;;5.66;100.00;96775.38;5040240;28;20414;-80
2023/11/24 09:25:26;;;;;;;16.42;3.92;;;;;;;5.72;100.00;96777.06;5034334;28;20405;-79
2023/11/24 09:27:52;;;;;;;16.50;3.35;;;;;;;5.71;100.00;96773.63;5037593;28;20438;-81
2023/11/24 09:30:19;;;;;;;18.60;3.70;;;;;;;5.68;100.00;96783.81;5039333;28;20767;-80
2023/11/24 09:32:47;;;;;;;25.30;3.80;;;;;;;5.61;100.00;96767.41;5038864;28;20395;-80
2023/11/24 09:35:14;;;;;;;21.27;4.18;;;;;;;5.69;100.00;96767.03;5041762;28;20399;-82
2023/11/24 09:37:40;;;;;;;22.33;3.80;;;;;;;5.66;100.00;96759.63;5050749;28;20406;-80
2023/11/24 09:40:12;;;;;;;21.60;3.83;;;;;;;5.74;100.00;96762.66;5039427;28;20430;-81
2023/11/24 09:42:43;;;;;;;19.92;3.28;;;;;;;5.82;100.00;96761.50;5036862;28;20395;-80
2023/11/24 09:45:15;;;;;;;26.50;4.47;;;;;;;5.73;100.00;96755.00;5040061;28;20506;-80
2023/11/24 09:47:47;;;;;;;22.08;3.90;;;;;;;5.77;100.00;96749.06;5044486;28;20763;-79
2023/11/24 09:50:18;;;;;;;18.95;4.40;;;;;;;5.81;100.00;96742.31;5042276;28;20415;-79
2023/11/24 09:52:48;;;;;;;21.73;3.45;;;;;;;5.84;100.00;96741.84;5044349;28;20396;-80
2023/11/24 09:55:14;;;;;;;18.70;3.60;;;;;;;5.92;100.00;96748.56;5044558;28;20922;-80
2023/11/24 09:57:40;;;;;;;31.52;3.85;;;;;;;5.87;100.00;96743.19;5044446;28;20425;-79
2023/11/24 10:00:08;;;;;;;27.97;4.10;;;;;;;5.87;100.00;96726.63;5037714;28;20474;-81
2023/11/24 10:02:41;;;;;;;27.50;4.55;;;;;;;5.78;100.00;96726.25;5042598;28;20913;-79
2023/11/24 10:05:11;;;;;;;19.40;3.38;;;;;;;5.85;100.00;96703.25;5039413;28;20808;-79
2023/11/24 10:07:41;;;;;;;26.88;4.40;;;;;;;5.83;100.00;96707.94;5039718;28;20463;-80
2023/11/24 10:10:08;;;;;;;26.02;3.65;;;;;;;5.86;100.00;96690.91;5034908;28;20410;-79
2023/11/24 10:12:36;;;;;;;24.77;4.15;;;;;;;5.88;100.00;96692.28;5035984;28;20391;-79
2023/11/24 10:15:05;;;;;;;27.92;3.85;;;;;;;5.88;100.00;96687.03;5034058;28;21622;-80
2023/11/24 10:17:33;;;;;;;32.53;4.88;;;;;;;5.83;100.00;96673.78;5034297;28;20410;-79
2023/11/24 10:20:11;;;;;;;29.80;4.60;;;;;;;5.84;100.00;96680.63;5037324;28;20401;-79
2023/11/24 10:22:38;;;;;;;23.23;4.05;;;;;;;6.26;100.00;96683.69;5034241;28;20426;-80
2023/11/24 10:25:07;;;;;;;15.25;3.60;;;;;;;6.99;100.00;96675.44;5036973;28;20402;-80
2023/11/24 10:27:34;;;;;;;8.13;2.80;;;;;;;7.41;100.00;96653.00;5034571;28;20431;-80
2023/11/24 10:30:01;;;;;;;16.27;3.65;;;;;;;7.36;100.00;96657.19;5034533;28;20807;-80
2023/11/24 10:32:27;;;;;;;13.05;3.10;;;;;;;7.35;100.00;96662.69;5035310;28;21030;-80
2023/11/24 10:34:53;;;;;;;19.30;3.45;;;;;;;7.28;100.00;96660.28;5037451;28;20486;-80
2023/11/24 10:37:21;;;;;;;16.93;3.67;;;;;;;7.05;100.00;96662.38;5041338;28;20501;-80
2023/11/24 10:39:52;;;;;;;8.75;3.38;;;;;;;6.99;100.00;96664.94;5052077;28;20407;-82
2023/11/24 10:42:20;;;;;;;10.45;3.03;;;;;;;7.03;100.00;96652.09;5042852;28;20402;-80
2023/11/24 10:44:54;;;;;;;20.67;3.92;;;;;;;6.77;100.00;96650.97;5037897;28;20398;-81
2023/11/24 10:47:28;;;;;;;20.65;4.15;;;;;;;6.78;100.00;96639.41;5033199;28;20402;-81
2023/11/24 10:50:02;;;;;;;18.27;5.32;;;;;;;6.88;100.00;96655.34;5038202;28;20430;-80
2023/11/24 10:52:34;;;;;;;12.97;3.40;;;;;;;6.93;100.00;96642.22;5039215;28;20455;-80
2023/11/24 10:55:13;;;;;;;21.90;4.25;;;;;;;6.96;100.00;96641.75;5038023;28;20489;-80
2023/11/24 10:57:43;;;;;;;17.40;3.78;;;;;;;6.96;100.00;96619.91;5037754;28;20399;-80
2023/11/24 11:00:14;;;;;;;10.38;2.83;;;;;;;6.93;100.00;96626.44;5038801;28;20415;-80
2023/11/24 11:02:41;;;;;;;25.17;3.77;;;;;;;6.83;100.00;96636.88;5040414;28;20434;-80
2023/11/24 11:05:14;;;;;;;10.48;3.17;;;;;;;6.82;100.00;96614.22;5039148;28;20867;-79
2023/11/24 11:07:52;;;;;;;10.38;2.63;;;;;;;6.85;100.00;96602.41;5039109;28;20551;-80
2023/11/24 11:10:25;;;;;;;12.65;3.38;;;;;;;6.99;100.00;96593.88;5034193;28;20482;-81
2023/11/24 11:12:53;;;;;;;13.53;3.30;;;;;;;7.42;100.00;96586.94;5034448;28;20475;-78
2023/11/24 11:15:24;;;;;;;11.05;2.72;;;;;;;7.82;100.00;96581.19;5033642;28;20431;-80
2023/11/24 11:18:08;;;;;;;8.63;2.80;;;;;;;8.00;100.00;96577.38;5036788;28;20395;-81
2023/11/24 11:20:37;;;;;;;7.95;2.60;;;;;;;7.96;100.00;96587.63;5034366;28;20458;-80
2023/11/24 11:23:05;;;;;;;16.67;3.05;;;;;;;7.65;100.00;96589.25;5037901;28;20403;-79
2023/11/24 11:25:46;;;;;;;8.38;2.20;;;;;;;7.45;100.00;96580.38;5038757;28;20390;-81
2023/11/24 11:28:35;;;;;;;20.75;3.92;;;;;;;7.18;100.00;96583.81;5037770;28;20434;-80